UAL418 PHOG-KLAX
Flight info
| Callsign | UAL418 |
|---|---|
| Flight time | 4h 52m |
| Altitude | 35000 |
| Route | SWEEP2 SWEEP EBBER R577 ETECO/N0460F370 R577 ELKEY RYDRR2 |
| Aircraft | B38M/M-SDE1FGHILORVWXY/HB1 |
Departure
| Time | 2026-05-07 19:32 |
|---|---|
| Airport | Kahului International Airport (PHOG) |
Arrival
| Time | 2026-05-08 00:25 |
|---|---|
| Airport | Los Angeles International Airport (KLAX) |
| Time | Latitude | Longitude | Altitude | Speed | Heading |
|---|---|---|---|---|---|
| 2026-05-07 19:06 | 20.89061 | -156.43850 | 38 ft | 0 kts | 304° |
| 2026-05-07 19:25 | 20.89056 | -156.43842 | 47 ft | 4 kts | 304° |
| 2026-05-07 19:25 | 20.89041 | -156.43819 | 45 ft | 4 kts | 304° |
| 2026-05-07 19:25 | 20.89026 | -156.43795 | 45 ft | 4 kts | 304° |
| 2026-05-07 19:25 | 20.89014 | -156.43774 | 46 ft | 4 kts | 288° |
| 2026-05-07 19:26 | 20.89012 | -156.43747 | 42 ft | 4 kts | 255° |
| 2026-05-07 19:26 | 20.89023 | -156.43721 | 46 ft | 4 kts | 233° |
| 2026-05-07 19:26 | 20.89042 | -156.43700 | 45 ft | 4 kts | 220° |
| 2026-05-07 19:26 | 20.89062 | -156.43684 | 44 ft | 4 kts | 215° |
| 2026-05-07 19:27 | 20.89084 | -156.43668 | 45 ft | 4 kts | 215° |
| 2026-05-07 19:27 | 20.89094 | -156.43660 | 46 ft | 0 kts | 215° |
| 2026-05-07 19:30 | 20.89088 | -156.43665 | 45 ft | 4 kts | 215° |
| 2026-05-07 19:30 | 20.89033 | -156.43705 | 43 ft | 14 kts | 207° |
| 2026-05-07 19:30 | 20.88957 | -156.43662 | 47 ft | 13 kts | 129° |
| 2026-05-07 19:31 | 20.88940 | -156.43625 | 47 ft | 3 kts | 80° |
| 2026-05-07 19:31 | 20.88949 | -156.43614 | 47 ft | 0 kts | 35° |
| 2026-05-07 19:31 | 20.89195 | -156.43429 | 47 ft | 82 kts | 35° |
| 2026-05-07 19:32 | 20.89846 | -156.42941 | 48 ft | 143 kts | 34° |
| 2026-05-07 19:32 | 20.90716 | -156.42351 | 543 ft | 154 kts | 28° |
| 2026-05-07 19:32 | 20.91647 | -156.41721 | 1188 ft | 165 kts | 33° |
| 2026-05-07 19:32 | 20.92605 | -156.41018 | 1778 ft | 174 kts | 35° |
| 2026-05-07 19:33 | 20.93649 | -156.40233 | 2080 ft | 196 kts | 37° |
| 2026-05-07 19:33 | 20.94518 | -156.39003 | 2510 ft | 217 kts | 75° |
| 2026-05-07 19:33 | 20.94485 | -156.37344 | 3265 ft | 232 kts | 102° |
| 2026-05-07 19:33 | 20.94011 | -156.35630 | 3978 ft | 249 kts | 106° |
| 2026-05-07 19:34 | 20.93461 | -156.33826 | 4745 ft | 260 kts | 107° |
| 2026-05-07 19:34 | 20.92915 | -156.31964 | 5676 ft | 265 kts | 105° |
| 2026-05-07 19:34 | 20.92392 | -156.30041 | 6417 ft | 277 kts | 104° |
| 2026-05-07 19:34 | 20.92149 | -156.28023 | 7322 ft | 275 kts | 85° |
| 2026-05-07 19:35 | 20.92452 | -156.25962 | 8078 ft | 283 kts | 78° |
| 2026-05-07 19:35 | 20.92902 | -156.23855 | 8835 ft | 291 kts | 77° |
| 2026-05-07 19:35 | 20.93362 | -156.21750 | 9550 ft | 299 kts | 78° |
| 2026-05-07 19:35 | 20.93818 | -156.19533 | 10263 ft | 306 kts | 79° |
| 2026-05-07 19:36 | 20.94271 | -156.17263 | 10639 ft | 324 kts | 79° |
| 2026-05-07 19:36 | 20.94745 | -156.14835 | 10948 ft | 344 kts | 79° |
| 2026-05-07 19:36 | 20.95241 | -156.12255 | 11184 ft | 363 kts | 79° |
| 2026-05-07 19:36 | 20.95583 | -156.10467 | 11324 ft | 376 kts | 79° |
| 2026-05-07 19:37 | 20.96114 | -156.07684 | 11587 ft | 391 kts | 79° |
| 2026-05-07 19:37 | 20.96662 | -156.04806 | 12099 ft | 396 kts | 79° |
| 2026-05-07 19:37 | 20.97211 | -156.01918 | 12766 ft | 397 kts | 79° |
| 2026-05-07 19:37 | 20.97911 | -155.99039 | 13266 ft | 402 kts | 73° |
| 2026-05-07 19:38 | 20.98708 | -155.96168 | 13913 ft | 403 kts | 73° |
| 2026-05-07 19:38 | 20.99495 | -155.93275 | 14375 ft | 407 kts | 74° |
| 2026-05-07 19:38 | 21.00281 | -155.90352 | 14868 ft | 409 kts | 74° |
| 2026-05-07 19:38 | 21.01066 | -155.87419 | 15323 ft | 413 kts | 74° |
| 2026-05-07 19:39 | 21.01858 | -155.84453 | 15815 ft | 414 kts | 74° |
| 2026-05-07 19:39 | 21.02647 | -155.81494 | 16251 ft | 418 kts | 74° |
| 2026-05-07 19:39 | 21.03445 | -155.78499 | 16711 ft | 419 kts | 74° |
| 2026-05-07 19:39 | 21.04247 | -155.75488 | 17112 ft | 423 kts | 74° |
| 2026-05-07 19:40 | 21.05055 | -155.72452 | 17580 ft | 424 kts | 74° |
| 2026-05-07 19:40 | 21.05865 | -155.69406 | 17981 ft | 427 kts | 74° |
| 2026-05-07 19:40 | 21.06679 | -155.66341 | 18427 ft | 428 kts | 74° |
| 2026-05-07 19:40 | 21.07497 | -155.63264 | 18749 ft | 431 kts | 74° |
| 2026-05-07 19:41 | 21.08318 | -155.60166 | 19091 ft | 433 kts | 74° |
| 2026-05-07 19:41 | 21.09130 | -155.57102 | 19387 ft | 436 kts | 74° |
| 2026-05-07 19:41 | 21.09958 | -155.53977 | 19718 ft | 438 kts | 74° |
| 2026-05-07 19:41 | 21.10791 | -155.50830 | 20045 ft | 440 kts | 74° |
| 2026-05-07 19:42 | 21.11628 | -155.47662 | 20345 ft | 443 kts | 74° |
| 2026-05-07 19:42 | 21.12468 | -155.44482 | 20675 ft | 444 kts | 74° |
| 2026-05-07 19:42 | 21.13314 | -155.41280 | 20942 ft | 448 kts | 74° |
| 2026-05-07 19:42 | 21.14161 | -155.38066 | 21281 ft | 449 kts | 74° |
| 2026-05-07 19:43 | 21.15012 | -155.34840 | 21556 ft | 452 kts | 74° |
| 2026-05-07 19:43 | 21.15864 | -155.31603 | 21895 ft | 453 kts | 74° |
| 2026-05-07 19:43 | 21.16718 | -155.28357 | 22167 ft | 456 kts | 74° |
| 2026-05-07 19:43 | 21.17578 | -155.25087 | 22471 ft | 458 kts | 74° |
| 2026-05-07 19:44 | 21.18441 | -155.21798 | 22781 ft | 459 kts | 75° |
| 2026-05-07 19:44 | 21.19307 | -155.18501 | 23104 ft | 460 kts | 75° |
| 2026-05-07 19:44 | 21.20175 | -155.15189 | 23395 ft | 462 kts | 75° |
| 2026-05-07 19:44 | 21.21046 | -155.11865 | 23660 ft | 464 kts | 75° |
| 2026-05-07 19:45 | 21.21920 | -155.08525 | 23918 ft | 466 kts | 75° |
| 2026-05-07 19:45 | 21.22791 | -155.05197 | 24123 ft | 468 kts | 75° |
| 2026-05-07 19:45 | 21.23669 | -155.01834 | 24367 ft | 470 kts | 75° |
| 2026-05-07 19:45 | 21.24552 | -154.98452 | 24590 ft | 472 kts | 75° |
| 2026-05-07 19:46 | 21.25438 | -154.95054 | 24818 ft | 473 kts | 75° |
| 2026-05-07 19:46 | 21.26326 | -154.91649 | 25070 ft | 475 kts | 75° |
| 2026-05-07 19:46 | 21.27205 | -154.88276 | 25265 ft | 477 kts | 75° |
| 2026-05-07 19:46 | 21.28096 | -154.84848 | 25524 ft | 478 kts | 75° |
| 2026-05-07 19:47 | 21.28992 | -154.81401 | 25731 ft | 481 kts | 75° |
| 2026-05-07 19:47 | 21.29885 | -154.77961 | 25972 ft | 482 kts | 75° |
| 2026-05-07 19:47 | 21.30785 | -154.74493 | 26201 ft | 484 kts | 75° |
| 2026-05-07 19:47 | 21.31689 | -154.71005 | 26416 ft | 486 kts | 75° |
| 2026-05-07 19:48 | 21.32595 | -154.67506 | 26645 ft | 488 kts | 75° |
| 2026-05-07 19:48 | 21.33503 | -154.63997 | 26871 ft | 490 kts | 75° |
| 2026-05-07 19:48 | 21.34416 | -154.60466 | 27105 ft | 491 kts | 75° |
| 2026-05-07 19:48 | 21.35328 | -154.56935 | 27324 ft | 493 kts | 75° |
| 2026-05-07 19:49 | 21.36241 | -154.53396 | 27538 ft | 495 kts | 75° |
| 2026-05-07 19:49 | 21.37160 | -154.49830 | 27780 ft | 496 kts | 75° |
| 2026-05-07 19:49 | 21.38078 | -154.46263 | 28093 ft | 496 kts | 75° |
| 2026-05-07 19:49 | 21.38993 | -154.42706 | 28414 ft | 495 kts | 75° |
| 2026-05-07 19:50 | 21.39909 | -154.39145 | 28740 ft | 495 kts | 75° |
| 2026-05-07 19:50 | 21.40824 | -154.35581 | 29071 ft | 494 kts | 75° |
| 2026-05-07 19:50 | 21.41735 | -154.32029 | 29402 ft | 494 kts | 75° |
| 2026-05-07 19:50 | 21.42647 | -154.28473 | 29738 ft | 494 kts | 75° |
| 2026-05-07 19:51 | 21.43551 | -154.24942 | 30086 ft | 493 kts | 75° |
| 2026-05-07 19:51 | 21.44458 | -154.21394 | 30391 ft | 493 kts | 75° |
| 2026-05-07 19:51 | 21.45364 | -154.17849 | 30691 ft | 492 kts | 75° |
| 2026-05-07 19:51 | 21.46270 | -154.14303 | 30993 ft | 492 kts | 75° |
| 2026-05-07 19:52 | 21.47160 | -154.10811 | 31290 ft | 491 kts | 75° |
| 2026-05-07 19:52 | 21.48062 | -154.07274 | 31597 ft | 490 kts | 75° |
| 2026-05-07 19:52 | 21.48960 | -154.03748 | 31913 ft | 489 kts | 75° |
| 2026-05-07 19:52 | 21.49850 | -154.00249 | 32248 ft | 488 kts | 75° |
| 2026-05-07 19:53 | 21.50744 | -153.96731 | 32567 ft | 487 kts | 75° |
| 2026-05-07 19:53 | 21.51633 | -153.93226 | 32880 ft | 487 kts | 75° |
| 2026-05-07 19:53 | 21.52522 | -153.89724 | 33197 ft | 486 kts | 75° |
| 2026-05-07 19:53 | 21.53408 | -153.86228 | 33517 ft | 485 kts | 75° |
| 2026-05-07 19:54 | 21.54294 | -153.82727 | 33823 ft | 484 kts | 75° |
| 2026-05-07 19:54 | 21.55176 | -153.79239 | 34140 ft | 484 kts | 75° |
| 2026-05-07 19:54 | 21.56054 | -153.75767 | 34386 ft | 483 kts | 75° |
| 2026-05-07 19:54 | 21.56933 | -153.72284 | 34629 ft | 483 kts | 75° |
| 2026-05-07 19:55 | 21.57811 | -153.68802 | 34855 ft | 482 kts | 75° |
| 2026-05-07 19:55 | 21.58688 | -153.65323 | 35071 ft | 482 kts | 75° |
| 2026-05-07 19:55 | 21.60428 | -153.58405 | 35123 ft | 481 kts | 75° |
| 2026-05-07 19:56 | 21.62179 | -153.51434 | 35131 ft | 481 kts | 75° |
| 2026-05-07 19:56 | 21.63915 | -153.44508 | 35130 ft | 481 kts | 75° |
| 2026-05-07 19:57 | 21.65640 | -153.37617 | 35128 ft | 481 kts | 75° |
| 2026-05-07 19:57 | 21.67378 | -153.30664 | 35126 ft | 481 kts | 75° |
| 2026-05-07 19:58 | 21.69107 | -153.23729 | 35128 ft | 481 kts | 75° |
| 2026-05-07 19:58 | 21.70836 | -153.16790 | 35130 ft | 481 kts | 75° |
| 2026-05-07 19:59 | 21.72038 | -153.13441 | 35106 ft | 479 kts | 60° |
| 2026-05-07 19:59 | 21.73640 | -153.10300 | 35143 ft | 480 kts | 62° |
| 2026-05-07 19:59 | 21.76770 | -153.04000 | 35133 ft | 480 kts | 62° |
| 2026-05-07 20:00 | 21.79948 | -152.97690 | 35131 ft | 481 kts | 62° |
| 2026-05-07 20:00 | 21.83134 | -152.91368 | 35133 ft | 481 kts | 62° |
| 2026-05-07 20:01 | 21.86325 | -152.85028 | 35131 ft | 481 kts | 62° |
| 2026-05-07 20:01 | 21.89503 | -152.78704 | 35128 ft | 481 kts | 62° |
| 2026-05-07 20:02 | 21.92687 | -152.72364 | 35130 ft | 481 kts | 62° |
| 2026-05-07 20:02 | 21.95866 | -152.66023 | 35134 ft | 480 kts | 62° |
| 2026-05-07 20:03 | 21.99032 | -152.59704 | 35129 ft | 479 kts | 62° |
| 2026-05-07 20:03 | 22.02195 | -152.53382 | 35130 ft | 479 kts | 62° |
| 2026-05-07 20:04 | 22.05329 | -152.47109 | 35130 ft | 479 kts | 62° |
| 2026-05-07 20:04 | 22.08489 | -152.40776 | 35133 ft | 479 kts | 62° |
| 2026-05-07 20:05 | 22.11646 | -152.34442 | 35136 ft | 479 kts | 62° |
| 2026-05-07 20:05 | 22.14795 | -152.28118 | 35135 ft | 479 kts | 62° |
| 2026-05-07 20:06 | 22.17940 | -152.21791 | 35134 ft | 477 kts | 62° |
| 2026-05-07 20:06 | 22.21071 | -152.15488 | 35139 ft | 477 kts | 62° |
| 2026-05-07 20:07 | 22.24205 | -152.09170 | 35137 ft | 477 kts | 62° |
| 2026-05-07 20:07 | 22.27327 | -152.02868 | 35138 ft | 477 kts | 62° |
| 2026-05-07 20:08 | 22.30455 | -151.96548 | 35140 ft | 477 kts | 62° |
| 2026-05-07 20:08 | 22.33577 | -151.90232 | 35135 ft | 477 kts | 62° |
| 2026-05-07 20:09 | 22.36671 | -151.83924 | 35145 ft | 478 kts | 63° |
| 2026-05-07 20:10 | 22.41320 | -151.74434 | 35137 ft | 476 kts | 63° |
| 2026-05-07 20:10 | 22.44412 | -151.68112 | 35140 ft | 476 kts | 63° |
| 2026-05-07 20:11 | 22.47509 | -151.61773 | 35142 ft | 476 kts | 63° |
| 2026-05-07 20:11 | 22.50594 | -151.55450 | 35141 ft | 476 kts | 63° |
| 2026-05-07 20:12 | 22.53666 | -151.49148 | 35144 ft | 476 kts | 63° |
| 2026-05-07 20:12 | 22.56750 | -151.42810 | 35143 ft | 476 kts | 63° |
| 2026-05-07 20:13 | 22.59834 | -151.36467 | 35143 ft | 476 kts | 63° |
| 2026-05-07 20:13 | 22.62910 | -151.30131 | 35142 ft | 476 kts | 63° |
| 2026-05-07 20:14 | 22.65991 | -151.23777 | 35141 ft | 476 kts | 63° |
| 2026-05-07 20:14 | 22.69070 | -151.17419 | 35143 ft | 476 kts | 63° |
| 2026-05-07 20:15 | 22.72143 | -151.11066 | 35145 ft | 476 kts | 63° |
| 2026-05-07 20:15 | 22.75211 | -151.04714 | 35141 ft | 476 kts | 63° |
| 2026-05-07 20:16 | 22.78265 | -150.98383 | 35147 ft | 477 kts | 63° |
| 2026-05-07 20:16 | 22.81333 | -150.92017 | 35143 ft | 476 kts | 63° |
| 2026-05-07 20:17 | 22.84398 | -150.85648 | 35144 ft | 477 kts | 63° |
| 2026-05-07 20:17 | 22.87459 | -150.79279 | 35149 ft | 476 kts | 63° |
| 2026-05-07 20:18 | 22.90526 | -150.72890 | 35139 ft | 477 kts | 63° |
| 2026-05-07 20:18 | 22.93567 | -150.66547 | 35150 ft | 477 kts | 63° |
| 2026-05-07 20:19 | 22.96621 | -150.60166 | 35148 ft | 477 kts | 63° |
| 2026-05-07 20:19 | 22.99684 | -150.53761 | 35147 ft | 477 kts | 63° |
| 2026-05-07 20:20 | 23.02739 | -150.47364 | 35151 ft | 477 kts | 63° |
| 2026-05-07 20:20 | 23.05795 | -150.40956 | 35152 ft | 477 kts | 63° |
| 2026-05-07 20:21 | 23.08838 | -150.34566 | 35149 ft | 477 kts | 63° |
| 2026-05-07 20:21 | 23.11886 | -150.28160 | 35147 ft | 477 kts | 63° |
| 2026-05-07 20:22 | 23.14930 | -150.21750 | 35148 ft | 477 kts | 63° |
| 2026-05-07 20:22 | 23.17956 | -150.15374 | 35151 ft | 478 kts | 63° |
| 2026-05-07 20:23 | 23.20994 | -150.08961 | 35155 ft | 478 kts | 63° |
| 2026-05-07 20:23 | 23.24033 | -150.02539 | 35152 ft | 478 kts | 63° |
| 2026-05-07 20:24 | 23.27075 | -149.96102 | 35153 ft | 478 kts | 63° |
| 2026-05-07 20:24 | 23.30114 | -149.89664 | 35156 ft | 478 kts | 63° |
| 2026-05-07 20:25 | 23.33136 | -149.83252 | 35154 ft | 478 kts | 63° |
| 2026-05-07 20:25 | 23.35656 | -149.77898 | 35152 ft | 478 kts | 63° |
| 2026-05-07 20:26 | 23.38688 | -149.71449 | 35153 ft | 478 kts | 63° |
| 2026-05-07 20:26 | 23.42206 | -149.63957 | 35160 ft | 479 kts | 63° |
| 2026-05-07 20:27 | 23.44740 | -149.58553 | 35157 ft | 479 kts | 63° |
| 2026-05-07 20:27 | 23.47764 | -149.52094 | 35157 ft | 479 kts | 63° |
| 2026-05-07 20:28 | 23.50788 | -149.45629 | 35158 ft | 479 kts | 63° |
| 2026-05-07 20:28 | 23.53780 | -149.39223 | 35160 ft | 479 kts | 63° |
| 2026-05-07 20:29 | 23.56796 | -149.32757 | 35165 ft | 479 kts | 63° |
| 2026-05-07 20:29 | 23.59814 | -149.26278 | 35163 ft | 479 kts | 63° |
| 2026-05-07 20:30 | 23.62832 | -149.19791 | 35163 ft | 479 kts | 63° |
| 2026-05-07 20:30 | 23.65837 | -149.13322 | 35165 ft | 479 kts | 64° |
| 2026-05-07 20:31 | 23.68844 | -149.06840 | 35168 ft | 479 kts | 64° |
| 2026-05-07 20:31 | 23.71851 | -149.00350 | 35161 ft | 479 kts | 63° |
| 2026-05-07 20:32 | 23.74837 | -148.93896 | 35171 ft | 479 kts | 63° |
| 2026-05-07 20:32 | 23.77833 | -148.87410 | 35166 ft | 479 kts | 63° |
| 2026-05-07 20:33 | 23.80830 | -148.80917 | 35163 ft | 479 kts | 64° |
| 2026-05-07 20:33 | 23.83834 | -148.74396 | 35166 ft | 479 kts | 64° |
| 2026-05-07 20:34 | 23.86828 | -148.67888 | 35169 ft | 479 kts | 64° |
| 2026-05-07 20:34 | 23.89815 | -148.61390 | 35168 ft | 479 kts | 64° |
| 2026-05-07 20:35 | 23.92782 | -148.54924 | 35174 ft | 479 kts | 64° |
| 2026-05-07 20:35 | 23.95771 | -148.48401 | 35172 ft | 480 kts | 64° |
| 2026-05-07 20:36 | 23.98750 | -148.41890 | 35170 ft | 480 kts | 64° |
| 2026-05-07 20:36 | 24.01731 | -148.35367 | 35174 ft | 480 kts | 64° |
| 2026-05-07 20:37 | 24.04716 | -148.28826 | 35173 ft | 480 kts | 64° |
| 2026-05-07 20:37 | 24.07691 | -148.22299 | 35171 ft | 480 kts | 64° |
| 2026-05-07 20:38 | 24.10657 | -148.15779 | 35175 ft | 479 kts | 64° |
| 2026-05-07 20:38 | 24.13614 | -148.09273 | 35172 ft | 480 kts | 64° |
| 2026-05-07 20:39 | 24.16589 | -148.02717 | 35175 ft | 480 kts | 64° |
| 2026-05-07 20:39 | 24.19560 | -147.96160 | 35173 ft | 480 kts | 64° |
| 2026-05-07 20:40 | 24.22519 | -147.89621 | 35171 ft | 480 kts | 64° |
| 2026-05-07 20:40 | 24.25485 | -147.83058 | 35173 ft | 480 kts | 64° |
| 2026-05-07 20:41 | 24.28443 | -147.76502 | 35181 ft | 480 kts | 64° |
| 2026-05-07 20:41 | 24.31406 | -147.69929 | 35176 ft | 481 kts | 64° |
| 2026-05-07 20:42 | 24.34358 | -147.63366 | 35177 ft | 481 kts | 64° |
| 2026-05-07 20:42 | 24.37293 | -147.56834 | 35176 ft | 480 kts | 64° |
| 2026-05-07 20:43 | 24.40247 | -147.50251 | 35176 ft | 480 kts | 64° |
| 2026-05-07 20:43 | 24.43193 | -147.43675 | 35180 ft | 481 kts | 64° |
| 2026-05-07 20:44 | 24.46138 | -147.37093 | 35175 ft | 481 kts | 64° |
| 2026-05-07 20:44 | 24.49081 | -147.30507 | 35181 ft | 480 kts | 64° |
| 2026-05-07 20:45 | 24.52021 | -147.23915 | 35181 ft | 480 kts | 64° |
| 2026-05-07 20:45 | 24.54950 | -147.17340 | 35181 ft | 480 kts | 64° |
| 2026-05-07 20:46 | 24.57863 | -147.10793 | 35181 ft | 480 kts | 64° |
| 2026-05-07 20:46 | 24.60791 | -147.04201 | 35184 ft | 480 kts | 64° |
| 2026-05-07 20:47 | 24.63715 | -146.97609 | 35192 ft | 480 kts | 64° |
| 2026-05-07 20:47 | 24.66634 | -146.91018 | 35185 ft | 481 kts | 64° |
| 2026-05-07 20:48 | 24.69561 | -146.84400 | 35183 ft | 481 kts | 64° |
| 2026-05-07 20:48 | 24.72481 | -146.77788 | 35182 ft | 480 kts | 64° |
| 2026-05-07 20:49 | 24.75399 | -146.71172 | 35184 ft | 480 kts | 64° |
| 2026-05-07 20:49 | 24.78285 | -146.64617 | 35184 ft | 480 kts | 64° |
| 2026-05-07 20:50 | 24.81199 | -146.57989 | 35189 ft | 481 kts | 64° |
| 2026-05-07 20:50 | 24.84108 | -146.51362 | 35185 ft | 481 kts | 64° |
| 2026-05-07 20:51 | 24.87013 | -146.44737 | 35185 ft | 481 kts | 64° |
| 2026-05-07 20:51 | 24.89914 | -146.38108 | 35183 ft | 481 kts | 64° |
| 2026-05-07 20:52 | 24.92817 | -146.31467 | 35184 ft | 481 kts | 64° |
| 2026-05-07 20:52 | 24.95715 | -146.24828 | 35184 ft | 480 kts | 64° |
| 2026-05-07 20:53 | 24.98584 | -146.18244 | 35186 ft | 480 kts | 64° |
| 2026-05-07 20:53 | 25.01475 | -146.11604 | 35184 ft | 480 kts | 64° |
| 2026-05-07 20:54 | 25.04366 | -146.04953 | 35187 ft | 480 kts | 64° |
| 2026-05-07 20:54 | 25.07252 | -145.98303 | 35189 ft | 480 kts | 64° |
| 2026-05-07 20:55 | 25.10128 | -145.91669 | 35191 ft | 480 kts | 64° |
| 2026-05-07 20:55 | 25.13009 | -145.85013 | 35195 ft | 481 kts | 64° |
| 2026-05-07 20:56 | 25.15886 | -145.78354 | 35184 ft | 480 kts | 64° |
| 2026-05-07 20:56 | 25.18758 | -145.71699 | 35190 ft | 480 kts | 64° |
| 2026-05-07 20:57 | 25.21624 | -145.65048 | 35192 ft | 480 kts | 64° |
| 2026-05-07 20:57 | 25.24490 | -145.58385 | 35191 ft | 480 kts | 64° |
| 2026-05-07 20:58 | 25.27336 | -145.51756 | 35191 ft | 480 kts | 64° |
| 2026-05-07 20:58 | 25.30178 | -145.45090 | 35195 ft | 480 kts | 64° |
| 2026-05-07 20:59 | 25.33030 | -145.38418 | 35197 ft | 480 kts | 64° |
| 2026-05-07 20:59 | 25.35879 | -145.31746 | 35199 ft | 480 kts | 64° |
| 2026-05-07 21:00 | 25.38727 | -145.25065 | 35193 ft | 480 kts | 64° |
| 2026-05-07 21:00 | 25.41551 | -145.18429 | 35196 ft | 481 kts | 64° |
| 2026-05-07 21:01 | 25.44400 | -145.11727 | 35197 ft | 480 kts | 64° |
| 2026-05-07 21:01 | 25.47239 | -145.05037 | 35195 ft | 480 kts | 64° |
| 2026-05-07 21:02 | 25.50073 | -144.98348 | 35195 ft | 480 kts | 64° |
| 2026-05-07 21:02 | 25.52901 | -144.91664 | 35192 ft | 480 kts | 64° |
| 2026-05-07 21:03 | 25.55731 | -144.84962 | 35201 ft | 480 kts | 64° |
| 2026-05-07 21:03 | 25.58558 | -144.78259 | 35201 ft | 480 kts | 64° |
| 2026-05-07 21:04 | 25.61378 | -144.71562 | 35200 ft | 480 kts | 64° |
| 2026-05-07 21:04 | 25.64195 | -144.64863 | 35203 ft | 481 kts | 64° |
| 2026-05-07 21:05 | 25.67015 | -144.58144 | 35192 ft | 481 kts | 64° |
| 2026-05-07 21:05 | 25.69833 | -144.51421 | 35196 ft | 480 kts | 64° |
| 2026-05-07 21:06 | 25.72622 | -144.44756 | 35202 ft | 481 kts | 64° |
| 2026-05-07 21:06 | 25.75434 | -144.38027 | 35207 ft | 481 kts | 64° |
| 2026-05-07 21:07 | 25.78243 | -144.31291 | 35198 ft | 481 kts | 64° |
| 2026-05-07 21:07 | 25.81049 | -144.24555 | 35203 ft | 481 kts | 64° |
| 2026-05-07 21:08 | 25.83848 | -144.17822 | 35205 ft | 481 kts | 64° |
| 2026-05-07 21:08 | 25.86653 | -144.11067 | 35197 ft | 481 kts | 64° |
| 2026-05-07 21:09 | 25.89454 | -144.04311 | 35202 ft | 481 kts | 64° |
| 2026-05-07 21:09 | 25.92234 | -143.97592 | 35199 ft | 481 kts | 64° |
| 2026-05-07 21:10 | 25.95023 | -143.90844 | 35201 ft | 482 kts | 64° |
| 2026-05-07 21:10 | 25.97815 | -143.84074 | 35208 ft | 482 kts | 64° |
| 2026-05-07 21:11 | 26.00606 | -143.77300 | 35202 ft | 482 kts | 64° |
| 2026-05-07 21:11 | 26.04778 | -143.67150 | 35207 ft | 482 kts | 64° |
| 2026-05-07 21:12 | 26.07564 | -143.60359 | 35201 ft | 482 kts | 64° |
| 2026-05-07 21:12 | 26.10344 | -143.53571 | 35204 ft | 482 kts | 64° |
| 2026-05-07 21:13 | 26.13123 | -143.46774 | 35201 ft | 482 kts | 64° |
| 2026-05-07 21:13 | 26.15895 | -143.39984 | 35202 ft | 482 kts | 64° |
| 2026-05-07 21:14 | 26.18203 | -143.34323 | 35210 ft | 482 kts | 64° |
| 2026-05-07 21:14 | 26.21424 | -143.26408 | 35212 ft | 482 kts | 64° |
| 2026-05-07 21:15 | 26.24191 | -143.19597 | 35212 ft | 483 kts | 64° |
| 2026-05-07 21:15 | 26.26486 | -143.13938 | 35206 ft | 483 kts | 64° |
| 2026-05-07 21:16 | 26.29248 | -143.07119 | 35212 ft | 483 kts | 65° |
| 2026-05-07 21:16 | 26.32010 | -143.00289 | 35212 ft | 483 kts | 65° |
| 2026-05-07 21:17 | 26.34767 | -142.93461 | 35210 ft | 483 kts | 65° |
| 2026-05-07 21:17 | 26.37512 | -142.86649 | 35207 ft | 483 kts | 65° |
| 2026-05-07 21:18 | 26.40262 | -142.79816 | 35207 ft | 483 kts | 65° |
| 2026-05-07 21:18 | 26.43013 | -142.72966 | 35208 ft | 483 kts | 65° |
| 2026-05-07 21:19 | 26.45754 | -142.66132 | 35210 ft | 483 kts | 65° |
| 2026-05-07 21:19 | 26.48497 | -142.59282 | 35217 ft | 484 kts | 65° |
| 2026-05-07 21:20 | 26.51239 | -142.52419 | 35216 ft | 484 kts | 65° |
| 2026-05-07 21:20 | 26.53959 | -142.45603 | 35214 ft | 484 kts | 65° |
| 2026-05-07 21:21 | 26.56690 | -142.38748 | 35214 ft | 484 kts | 65° |
| 2026-05-07 21:21 | 26.59421 | -142.31881 | 35215 ft | 484 kts | 65° |
| 2026-05-07 21:22 | 26.62152 | -142.25003 | 35217 ft | 484 kts | 65° |
| 2026-05-07 21:22 | 26.64882 | -142.18116 | 35215 ft | 485 kts | 65° |
| 2026-05-07 21:23 | 26.67602 | -142.11242 | 35215 ft | 485 kts | 65° |
| 2026-05-07 21:23 | 26.70325 | -142.04348 | 35207 ft | 485 kts | 65° |
| 2026-05-07 21:24 | 26.73047 | -141.97445 | 35215 ft | 485 kts | 65° |
| 2026-05-07 21:24 | 26.75756 | -141.90565 | 35221 ft | 485 kts | 65° |
| 2026-05-07 21:25 | 26.78474 | -141.83647 | 35217 ft | 485 kts | 65° |
| 2026-05-07 21:25 | 26.81187 | -141.76733 | 35214 ft | 485 kts | 65° |
| 2026-05-07 21:26 | 26.83898 | -141.69809 | 35217 ft | 485 kts | 65° |
| 2026-05-07 21:26 | 26.86599 | -141.62903 | 35217 ft | 485 kts | 65° |
| 2026-05-07 21:27 | 26.89289 | -141.56010 | 35214 ft | 486 kts | 65° |
| 2026-05-07 21:27 | 26.91992 | -141.49073 | 35217 ft | 486 kts | 65° |
| 2026-05-07 21:28 | 26.94696 | -141.42122 | 35219 ft | 486 kts | 65° |
| 2026-05-07 21:28 | 26.97389 | -141.35187 | 35216 ft | 486 kts | 65° |
| 2026-05-07 21:29 | 27.00084 | -141.28234 | 35218 ft | 486 kts | 65° |
| 2026-05-07 21:29 | 27.02780 | -141.21266 | 35222 ft | 487 kts | 65° |
| 2026-05-07 21:30 | 27.05471 | -141.14299 | 35220 ft | 487 kts | 65° |
| 2026-05-07 21:30 | 27.08155 | -141.07336 | 35222 ft | 487 kts | 65° |
| 2026-05-07 21:31 | 27.10826 | -141.00398 | 35219 ft | 487 kts | 65° |
| 2026-05-07 21:31 | 27.13510 | -140.93413 | 35228 ft | 487 kts | 65° |
| 2026-05-07 21:32 | 27.16186 | -140.86434 | 35226 ft | 488 kts | 65° |
| 2026-05-07 21:32 | 27.18867 | -140.79434 | 35224 ft | 488 kts | 65° |
| 2026-05-07 21:33 | 27.21544 | -140.72428 | 35225 ft | 488 kts | 65° |
| 2026-05-07 21:33 | 27.24219 | -140.65417 | 35225 ft | 488 kts | 65° |
| 2026-05-07 21:34 | 27.26882 | -140.58423 | 35231 ft | 487 kts | 66° |
| 2026-05-07 21:34 | 27.29546 | -140.51416 | 35228 ft | 488 kts | 66° |
| 2026-05-07 21:35 | 27.32212 | -140.44390 | 35230 ft | 488 kts | 66° |
| 2026-05-07 21:35 | 27.34872 | -140.37368 | 35224 ft | 488 kts | 66° |
| 2026-05-07 21:36 | 27.37522 | -140.30360 | 35231 ft | 488 kts | 66° |
| 2026-05-07 21:36 | 27.40175 | -140.23331 | 35230 ft | 488 kts | 66° |
| 2026-05-07 21:37 | 27.42809 | -140.16341 | 35231 ft | 488 kts | 66° |
| 2026-05-07 21:37 | 27.45447 | -140.09323 | 35230 ft | 487 kts | 66° |
| 2026-05-07 21:38 | 27.48086 | -140.02294 | 35229 ft | 488 kts | 66° |
| 2026-05-07 21:38 | 27.50726 | -139.95248 | 35243 ft | 488 kts | 66° |
| 2026-05-07 21:39 | 27.53360 | -139.88206 | 35236 ft | 488 kts | 66° |
| 2026-05-07 21:39 | 27.55985 | -139.81173 | 35235 ft | 488 kts | 66° |
| 2026-05-07 21:40 | 27.58614 | -139.74119 | 35235 ft | 488 kts | 66° |
| 2026-05-07 21:40 | 27.61241 | -139.67057 | 35235 ft | 488 kts | 66° |
| 2026-05-07 21:41 | 27.63862 | -139.59998 | 35242 ft | 488 kts | 66° |
| 2026-05-07 21:41 | 27.66477 | -139.52942 | 35234 ft | 489 kts | 66° |
| 2026-05-07 21:42 | 27.69074 | -139.45926 | 35238 ft | 488 kts | 66° |
| 2026-05-07 21:42 | 27.71690 | -139.38846 | 35240 ft | 488 kts | 66° |
| 2026-05-07 21:43 | 27.74296 | -139.31779 | 35250 ft | 488 kts | 66° |
| 2026-05-07 21:43 | 27.76905 | -139.24692 | 35242 ft | 488 kts | 66° |
| 2026-05-07 21:44 | 27.79506 | -139.17612 | 35236 ft | 488 kts | 66° |
| 2026-05-07 21:44 | 27.82105 | -139.10527 | 35243 ft | 488 kts | 66° |
| 2026-05-07 21:45 | 27.84679 | -139.03496 | 35239 ft | 487 kts | 66° |
| 2026-05-07 21:45 | 27.87266 | -138.96415 | 35242 ft | 488 kts | 66° |
| 2026-05-07 21:46 | 27.89853 | -138.89324 | 35243 ft | 488 kts | 66° |
| 2026-05-07 21:46 | 27.92423 | -138.82216 | 35241 ft | 488 kts | 66° |
| 2026-05-07 21:47 | 27.94991 | -138.75125 | 35240 ft | 488 kts | 66° |
| 2026-05-07 21:47 | 27.97567 | -138.68010 | 35243 ft | 488 kts | 66° |
| 2026-05-07 21:48 | 28.00139 | -138.60893 | 35244 ft | 488 kts | 66° |
| 2026-05-07 21:48 | 28.02697 | -138.53798 | 35245 ft | 488 kts | 66° |
| 2026-05-07 21:49 | 28.05246 | -138.46719 | 35247 ft | 488 kts | 66° |
| 2026-05-07 21:49 | 28.07807 | -138.39591 | 35249 ft | 488 kts | 66° |
| 2026-05-07 21:50 | 28.10357 | -138.32477 | 35252 ft | 488 kts | 66° |
| 2026-05-07 21:50 | 28.12899 | -138.25376 | 35241 ft | 488 kts | 66° |
| 2026-05-07 21:51 | 28.15446 | -138.18245 | 35247 ft | 487 kts | 66° |
| 2026-05-07 21:51 | 28.17983 | -138.11129 | 35252 ft | 487 kts | 66° |
| 2026-05-07 21:52 | 28.20502 | -138.04050 | 35242 ft | 488 kts | 66° |
| 2026-05-07 21:52 | 28.23028 | -137.96938 | 35247 ft | 487 kts | 66° |
| 2026-05-07 21:53 | 28.25553 | -137.89815 | 35248 ft | 487 kts | 66° |
| 2026-05-07 21:53 | 28.28076 | -137.82685 | 35254 ft | 487 kts | 66° |
| 2026-05-07 21:54 | 28.30593 | -137.75554 | 35247 ft | 487 kts | 66° |
| 2026-05-07 21:54 | 28.33096 | -137.68453 | 35247 ft | 487 kts | 67° |
| 2026-05-07 21:55 | 28.35603 | -137.61324 | 35257 ft | 487 kts | 67° |
| 2026-05-07 21:55 | 28.38108 | -137.54188 | 35250 ft | 486 kts | 67° |
| 2026-05-07 21:56 | 28.40602 | -137.47069 | 35255 ft | 486 kts | 67° |
| 2026-05-07 21:56 | 28.43100 | -137.39926 | 35255 ft | 486 kts | 67° |
| 2026-05-07 21:57 | 28.45595 | -137.32776 | 35252 ft | 486 kts | 67° |
| 2026-05-07 21:57 | 28.48065 | -137.25686 | 35251 ft | 485 kts | 67° |
| 2026-05-07 21:58 | 28.50542 | -137.18559 | 35254 ft | 485 kts | 67° |
| 2026-05-07 21:58 | 28.53017 | -137.11427 | 35254 ft | 485 kts | 67° |
| 2026-05-07 21:59 | 28.55491 | -137.04281 | 35251 ft | 485 kts | 67° |
| 2026-05-07 21:59 | 28.57965 | -136.97123 | 35255 ft | 485 kts | 67° |
| 2026-05-07 22:00 | 28.60420 | -136.90003 | 35264 ft | 485 kts | 67° |
| 2026-05-07 22:00 | 28.62883 | -136.82846 | 35256 ft | 485 kts | 67° |
| 2026-05-07 22:01 | 28.65345 | -136.75681 | 35257 ft | 485 kts | 67° |
| 2026-05-07 22:01 | 28.67794 | -136.68536 | 35258 ft | 485 kts | 67° |
| 2026-05-07 22:02 | 28.70245 | -136.61372 | 35265 ft | 485 kts | 67° |
| 2026-05-07 22:02 | 28.72281 | -136.55411 | 35256 ft | 485 kts | 67° |
| 2026-05-07 22:03 | 28.75122 | -136.47075 | 35257 ft | 485 kts | 67° |
| 2026-05-07 22:03 | 28.77158 | -136.41087 | 35256 ft | 485 kts | 67° |
| 2026-05-07 22:04 | 28.79594 | -136.33913 | 35257 ft | 485 kts | 67° |
| 2026-05-07 22:04 | 28.82009 | -136.26785 | 35258 ft | 485 kts | 67° |
| 2026-05-07 22:05 | 28.84434 | -136.19614 | 35260 ft | 485 kts | 68° |
| 2026-05-07 22:05 | 28.86851 | -136.12451 | 35260 ft | 484 kts | 68° |
| 2026-05-07 22:06 | 28.89264 | -136.05286 | 35260 ft | 484 kts | 68° |
| 2026-05-07 22:06 | 28.91673 | -135.98118 | 35260 ft | 484 kts | 68° |
| 2026-05-07 22:07 | 28.94084 | -135.90930 | 35260 ft | 484 kts | 68° |
| 2026-05-07 22:07 | 28.96483 | -135.83763 | 35263 ft | 484 kts | 68° |
| 2026-05-07 22:08 | 28.98880 | -135.76584 | 35261 ft | 484 kts | 68° |
| 2026-05-07 22:08 | 29.01271 | -135.69412 | 35262 ft | 483 kts | 68° |
| 2026-05-07 22:09 | 29.03639 | -135.62293 | 35262 ft | 484 kts | 68° |
| 2026-05-07 22:09 | 29.06023 | -135.55114 | 35262 ft | 483 kts | 68° |
| 2026-05-07 22:10 | 29.08398 | -135.47942 | 35267 ft | 482 kts | 68° |
| 2026-05-07 22:10 | 29.10777 | -135.40746 | 35267 ft | 483 kts | 68° |
| 2026-05-07 22:11 | 29.13140 | -135.33585 | 35269 ft | 482 kts | 68° |
| 2026-05-07 22:11 | 29.15499 | -135.26420 | 35267 ft | 481 kts | 68° |
| 2026-05-07 22:12 | 29.17856 | -135.19246 | 35267 ft | 481 kts | 68° |
| 2026-05-07 22:12 | 29.20207 | -135.12074 | 35267 ft | 481 kts | 68° |
| 2026-05-07 22:13 | 29.22546 | -135.04924 | 35263 ft | 481 kts | 68° |
| 2026-05-07 22:13 | 29.24875 | -134.97793 | 35270 ft | 481 kts | 68° |
| 2026-05-07 22:14 | 29.27213 | -134.90616 | 35267 ft | 481 kts | 68° |
| 2026-05-07 22:14 | 29.29547 | -134.83437 | 35269 ft | 481 kts | 68° |
| 2026-05-07 22:15 | 29.31873 | -134.76271 | 35272 ft | 481 kts | 68° |
| 2026-05-07 22:15 | 29.34199 | -134.69086 | 35268 ft | 481 kts | 68° |
| 2026-05-07 22:16 | 29.36521 | -134.61900 | 35270 ft | 481 kts | 68° |
| 2026-05-07 22:16 | 29.38834 | -134.54725 | 35270 ft | 480 kts | 68° |
| 2026-05-07 22:17 | 29.41148 | -134.47530 | 35268 ft | 480 kts | 68° |
| 2026-05-07 22:17 | 29.43459 | -134.40332 | 35278 ft | 480 kts | 68° |
| 2026-05-07 22:18 | 29.46914 | -134.29544 | 35274 ft | 480 kts | 68° |
| 2026-05-07 22:19 | 29.49206 | -134.22365 | 35277 ft | 480 kts | 68° |
| 2026-05-07 22:19 | 29.51503 | -134.15157 | 35271 ft | 480 kts | 68° |
| 2026-05-07 22:20 | 29.53775 | -134.08011 | 35277 ft | 480 kts | 69° |
| 2026-05-07 22:20 | 29.56061 | -134.00809 | 35283 ft | 480 kts | 68° |
| 2026-05-07 22:21 | 29.58339 | -133.93613 | 35272 ft | 479 kts | 68° |
| 2026-05-07 22:21 | 29.60615 | -133.86406 | 35278 ft | 479 kts | 68° |
| 2026-05-07 22:22 | 29.62887 | -133.79202 | 35277 ft | 479 kts | 68° |
| 2026-05-07 22:22 | 29.65144 | -133.72027 | 35276 ft | 478 kts | 68° |
| 2026-05-07 22:23 | 29.67388 | -133.64877 | 35279 ft | 479 kts | 68° |
| 2026-05-07 22:23 | 29.69642 | -133.57681 | 35280 ft | 478 kts | 68° |
| 2026-05-07 22:24 | 29.71890 | -133.50487 | 35279 ft | 478 kts | 68° |
| 2026-05-07 22:24 | 29.74132 | -133.43296 | 35279 ft | 478 kts | 68° |
| 2026-05-07 22:25 | 29.76368 | -133.36112 | 35279 ft | 475 kts | 68° |
| 2026-05-07 22:25 | 29.78588 | -133.28962 | 35281 ft | 475 kts | 68° |
| 2026-05-07 22:26 | 29.80809 | -133.21794 | 35286 ft | 475 kts | 68° |
| 2026-05-07 22:26 | 29.83011 | -133.14669 | 35277 ft | 472 kts | 68° |
| 2026-05-07 22:27 | 29.85214 | -133.07526 | 35279 ft | 473 kts | 68° |
| 2026-05-07 22:27 | 29.87411 | -133.00390 | 35282 ft | 473 kts | 68° |
| 2026-05-07 22:28 | 29.89593 | -132.93283 | 35280 ft | 474 kts | 68° |
| 2026-05-07 22:28 | 29.91782 | -132.86140 | 35279 ft | 474 kts | 68° |
| 2026-05-07 22:29 | 29.93973 | -132.78974 | 35278 ft | 474 kts | 68° |
| 2026-05-07 22:29 | 29.96159 | -132.71811 | 35282 ft | 474 kts | 68° |
| 2026-05-07 22:30 | 29.98339 | -132.64649 | 35284 ft | 474 kts | 68° |
| 2026-05-07 22:30 | 30.00520 | -132.57471 | 35292 ft | 473 kts | 68° |
| 2026-05-07 22:31 | 30.02688 | -132.50315 | 35287 ft | 472 kts | 68° |
| 2026-05-07 22:31 | 30.04852 | -132.43160 | 35284 ft | 472 kts | 68° |
| 2026-05-07 22:32 | 30.06992 | -132.36069 | 35288 ft | 471 kts | 68° |
| 2026-05-07 22:32 | 30.09141 | -132.28934 | 35284 ft | 470 kts | 68° |
| 2026-05-07 22:33 | 30.11287 | -132.21797 | 35282 ft | 471 kts | 68° |
| 2026-05-07 22:33 | 30.13432 | -132.14647 | 35285 ft | 469 kts | 68° |
| 2026-05-07 22:34 | 30.15559 | -132.07539 | 35285 ft | 469 kts | 68° |
| 2026-05-07 22:34 | 30.17690 | -132.00406 | 35284 ft | 470 kts | 68° |
| 2026-05-07 22:35 | 30.19817 | -131.93269 | 35285 ft | 469 kts | 68° |
| 2026-05-07 22:35 | 30.21923 | -131.86185 | 35286 ft | 469 kts | 68° |
| 2026-05-07 22:36 | 30.24033 | -131.79073 | 35283 ft | 469 kts | 69° |
| 2026-05-07 22:36 | 30.26143 | -131.71946 | 35284 ft | 467 kts | 68° |
| 2026-05-07 22:37 | 30.28243 | -131.64833 | 35284 ft | 467 kts | 69° |
| 2026-05-07 22:37 | 30.30322 | -131.57705 | 35339 ft | 469 kts | 69° |
| 2026-05-07 22:37 | 30.31367 | -131.54146 | 35618 ft | 468 kts | 68° |
| 2026-05-07 22:38 | 30.32411 | -131.50582 | 35898 ft | 467 kts | 68° |
| 2026-05-07 22:38 | 30.33453 | -131.47028 | 36176 ft | 466 kts | 68° |
| 2026-05-07 22:38 | 30.34495 | -131.43465 | 36440 ft | 466 kts | 68° |
| 2026-05-07 22:38 | 30.35533 | -131.39916 | 36680 ft | 466 kts | 68° |
| 2026-05-07 22:39 | 30.36574 | -131.36352 | 36921 ft | 465 kts | 68° |
| 2026-05-07 22:39 | 30.37610 | -131.32802 | 37170 ft | 464 kts | 68° |
| 2026-05-07 22:39 | 30.38640 | -131.29266 | 37303 ft | 464 kts | 68° |
| 2026-05-07 22:40 | 30.40680 | -131.22252 | 37280 ft | 461 kts | 68° |
| 2026-05-07 22:40 | 30.42725 | -131.15202 | 37282 ft | 462 kts | 68° |
| 2026-05-07 22:41 | 30.44767 | -131.08152 | 37282 ft | 461 kts | 68° |
| 2026-05-07 22:41 | 30.46797 | -131.01124 | 37282 ft | 461 kts | 68° |
| 2026-05-07 22:42 | 30.48828 | -130.94079 | 37282 ft | 461 kts | 68° |
| 2026-05-07 22:42 | 30.50854 | -130.87033 | 37283 ft | 460 kts | 68° |
| 2026-05-07 22:43 | 30.52872 | -130.80000 | 37284 ft | 459 kts | 68° |
| 2026-05-07 22:43 | 30.54880 | -130.72985 | 37279 ft | 459 kts | 68° |
| 2026-05-07 22:44 | 30.56890 | -130.65948 | 37274 ft | 459 kts | 68° |
| 2026-05-07 22:44 | 30.58895 | -130.58910 | 37279 ft | 459 kts | 68° |
| 2026-05-07 22:45 | 30.60886 | -130.51907 | 37279 ft | 459 kts | 68° |
| 2026-05-07 22:45 | 30.62881 | -130.44876 | 37287 ft | 459 kts | 68° |
| 2026-05-07 22:46 | 30.64872 | -130.37838 | 37276 ft | 458 kts | 68° |
| 2026-05-07 22:46 | 30.66858 | -130.30804 | 37273 ft | 458 kts | 68° |
| 2026-05-07 22:47 | 30.68842 | -130.23764 | 37289 ft | 458 kts | 68° |
| 2026-05-07 22:47 | 30.70812 | -130.16752 | 37273 ft | 457 kts | 68° |
| 2026-05-07 22:48 | 30.72783 | -130.09722 | 37274 ft | 458 kts | 68° |
| 2026-05-07 22:48 | 30.74754 | -130.02677 | 37285 ft | 458 kts | 68° |
| 2026-05-07 22:49 | 30.76716 | -129.95646 | 37270 ft | 457 kts | 68° |
| 2026-05-07 22:49 | 30.78668 | -129.88633 | 37277 ft | 457 kts | 68° |
| 2026-05-07 22:50 | 30.80623 | -129.81595 | 37272 ft | 457 kts | 68° |
| 2026-05-07 22:50 | 30.82559 | -129.74608 | 37268 ft | 456 kts | 68° |
| 2026-05-07 22:51 | 30.84505 | -129.67569 | 37266 ft | 456 kts | 68° |
| 2026-05-07 22:51 | 30.86113 | -129.61742 | 37277 ft | 456 kts | 68° |
| 2026-05-07 22:52 | 30.88050 | -129.54704 | 37278 ft | 456 kts | 68° |
| 2026-05-07 22:52 | 30.89982 | -129.47669 | 37268 ft | 456 kts | 68° |
| 2026-05-07 22:53 | 30.91909 | -129.40637 | 37274 ft | 456 kts | 68° |
| 2026-05-07 22:53 | 30.93828 | -129.33616 | 37275 ft | 456 kts | 68° |
| 2026-05-07 22:54 | 30.95750 | -129.26567 | 37269 ft | 456 kts | 68° |
| 2026-05-07 22:54 | 30.97666 | -129.19521 | 37267 ft | 456 kts | 68° |
| 2026-05-07 22:55 | 30.99569 | -129.12510 | 37266 ft | 456 kts | 68° |
| 2026-05-07 22:55 | 31.01476 | -129.05466 | 37266 ft | 456 kts | 68° |
| 2026-05-07 22:56 | 31.03382 | -128.98409 | 37266 ft | 456 kts | 68° |
| 2026-05-07 22:56 | 31.05284 | -128.91347 | 37263 ft | 456 kts | 68° |
| 2026-05-07 22:57 | 31.07182 | -128.84283 | 37267 ft | 457 kts | 69° |
| 2026-05-07 22:57 | 31.09073 | -128.77232 | 37266 ft | 457 kts | 69° |
| 2026-05-07 22:58 | 31.10965 | -128.70158 | 37259 ft | 457 kts | 69° |
| 2026-05-07 22:58 | 31.12843 | -128.63119 | 37266 ft | 457 kts | 69° |
| 2026-05-07 22:59 | 31.14725 | -128.56049 | 37261 ft | 456 kts | 69° |
| 2026-05-07 22:59 | 31.16600 | -128.48985 | 37261 ft | 457 kts | 69° |
| 2026-05-07 23:00 | 31.18477 | -128.41898 | 37260 ft | 457 kts | 69° |
| 2026-05-07 23:00 | 31.20349 | -128.34814 | 37261 ft | 457 kts | 69° |
| 2026-05-07 23:01 | 31.22220 | -128.27715 | 37260 ft | 457 kts | 69° |
| 2026-05-07 23:01 | 31.24081 | -128.20633 | 37255 ft | 457 kts | 69° |
| 2026-05-07 23:02 | 31.25943 | -128.13535 | 37256 ft | 456 kts | 69° |
| 2026-05-07 23:02 | 31.27788 | -128.06481 | 37257 ft | 457 kts | 69° |
| 2026-05-07 23:03 | 31.29642 | -127.99376 | 37254 ft | 456 kts | 69° |
| 2026-05-07 23:03 | 31.31487 | -127.92288 | 37259 ft | 457 kts | 69° |
| 2026-05-07 23:04 | 31.33334 | -127.85173 | 37252 ft | 457 kts | 69° |
| 2026-05-07 23:04 | 31.35177 | -127.78057 | 37252 ft | 457 kts | 69° |
| 2026-05-07 23:05 | 31.37016 | -127.70940 | 37264 ft | 457 kts | 69° |
| 2026-05-07 23:05 | 31.38846 | -127.63838 | 37252 ft | 457 kts | 69° |
| 2026-05-07 23:06 | 31.40676 | -127.56718 | 37250 ft | 457 kts | 70° |
| 2026-05-07 23:06 | 31.42505 | -127.49584 | 37249 ft | 457 kts | 70° |
| 2026-05-07 23:07 | 31.44317 | -127.42496 | 37251 ft | 457 kts | 70° |
| 2026-05-07 23:07 | 31.46131 | -127.35386 | 37250 ft | 457 kts | 70° |
| 2026-05-07 23:08 | 31.47945 | -127.28257 | 37243 ft | 457 kts | 70° |
| 2026-05-07 23:08 | 31.49759 | -127.21107 | 37257 ft | 457 kts | 70° |
| 2026-05-07 23:09 | 31.51564 | -127.13973 | 37243 ft | 457 kts | 70° |
| 2026-05-07 23:09 | 31.53363 | -127.06851 | 37244 ft | 457 kts | 70° |
| 2026-05-07 23:10 | 31.55162 | -126.99703 | 37241 ft | 457 kts | 70° |
| 2026-05-07 23:10 | 31.56958 | -126.92555 | 37242 ft | 456 kts | 70° |
| 2026-05-07 23:11 | 31.58745 | -126.85421 | 37237 ft | 456 kts | 70° |
| 2026-05-07 23:11 | 31.60525 | -126.78294 | 37238 ft | 456 kts | 70° |
| 2026-05-07 23:12 | 31.62305 | -126.71154 | 37246 ft | 455 kts | 70° |
| 2026-05-07 23:12 | 31.64075 | -126.64031 | 37232 ft | 454 kts | 70° |
| 2026-05-07 23:13 | 31.65840 | -126.56911 | 37232 ft | 454 kts | 70° |
| 2026-05-07 23:13 | 31.67586 | -126.49850 | 37246 ft | 454 kts | 70° |
| 2026-05-07 23:14 | 31.69344 | -126.42722 | 37233 ft | 453 kts | 70° |
| 2026-05-07 23:14 | 31.71089 | -126.35628 | 37233 ft | 453 kts | 70° |
| 2026-05-07 23:15 | 31.72836 | -126.28505 | 37229 ft | 453 kts | 70° |
| 2026-05-07 23:15 | 31.74576 | -126.21392 | 37232 ft | 454 kts | 70° |
| 2026-05-07 23:16 | 31.76308 | -126.14295 | 37231 ft | 454 kts | 70° |
| 2026-05-07 23:16 | 31.78043 | -126.07163 | 37228 ft | 455 kts | 70° |
| 2026-05-07 23:17 | 31.79779 | -126.00012 | 37231 ft | 455 kts | 70° |
| 2026-05-07 23:17 | 31.81507 | -125.92875 | 37229 ft | 455 kts | 70° |
| 2026-05-07 23:18 | 31.83234 | -125.85719 | 37228 ft | 455 kts | 70° |
| 2026-05-07 23:18 | 31.84959 | -125.78558 | 37226 ft | 455 kts | 71° |
| 2026-05-07 23:19 | 31.86680 | -125.71389 | 37225 ft | 456 kts | 71° |
| 2026-05-07 23:19 | 31.88400 | -125.64206 | 37218 ft | 458 kts | 71° |
| 2026-05-07 23:20 | 31.90120 | -125.57007 | 37227 ft | 458 kts | 71° |
| 2026-05-07 23:20 | 31.91839 | -125.49788 | 37223 ft | 458 kts | 71° |
| 2026-05-07 23:21 | 31.93551 | -125.42580 | 37222 ft | 462 kts | 72° |
| 2026-05-07 23:21 | 31.95273 | -125.35308 | 37212 ft | 462 kts | 72° |
| 2026-05-07 23:22 | 31.96996 | -125.28015 | 37211 ft | 462 kts | 72° |
| 2026-05-07 23:22 | 31.98715 | -125.20715 | 37211 ft | 464 kts | 72° |
| 2026-05-07 23:23 | 32.00437 | -125.13385 | 37210 ft | 466 kts | 72° |
| 2026-05-07 23:23 | 32.02159 | -125.06033 | 37211 ft | 465 kts | 72° |
| 2026-05-07 23:24 | 32.03875 | -124.98682 | 37220 ft | 465 kts | 73° |
| 2026-05-07 23:24 | 32.05593 | -124.91303 | 37215 ft | 469 kts | 73° |
| 2026-05-07 23:25 | 32.07302 | -124.83949 | 37209 ft | 469 kts | 73° |
| 2026-05-07 23:25 | 32.09021 | -124.76532 | 37205 ft | 469 kts | 73° |
| 2026-05-07 23:26 | 32.10738 | -124.69103 | 37206 ft | 470 kts | 73° |
| 2026-05-07 23:26 | 32.12458 | -124.61640 | 37204 ft | 472 kts | 73° |
| 2026-05-07 23:27 | 32.15026 | -124.50460 | 37199 ft | 471 kts | 73° |
| 2026-05-07 23:27 | 32.16736 | -124.42984 | 37198 ft | 473 kts | 73° |
| 2026-05-07 23:28 | 32.18449 | -124.35477 | 37197 ft | 474 kts | 74° |
| 2026-05-07 23:28 | 32.20154 | -124.27985 | 37199 ft | 473 kts | 73° |
| 2026-05-07 23:29 | 32.21859 | -124.20468 | 37203 ft | 474 kts | 74° |
| 2026-05-07 23:29 | 32.23561 | -124.12944 | 37198 ft | 474 kts | 74° |
| 2026-05-07 23:30 | 32.25146 | -124.05389 | 37193 ft | 474 kts | 75° |
| 2026-05-07 23:30 | 32.26716 | -123.97833 | 37187 ft | 475 kts | 75° |
| 2026-05-07 23:31 | 32.28291 | -123.90260 | 37189 ft | 475 kts | 75° |
| 2026-05-07 23:31 | 32.29854 | -123.82730 | 37186 ft | 475 kts | 75° |
| 2026-05-07 23:32 | 32.31422 | -123.75148 | 37186 ft | 475 kts | 75° |
| 2026-05-07 23:32 | 32.32983 | -123.67578 | 37182 ft | 475 kts | 75° |
| 2026-05-07 23:33 | 32.34541 | -123.59998 | 37179 ft | 475 kts | 75° |
| 2026-05-07 23:33 | 32.36096 | -123.52406 | 37178 ft | 475 kts | 75° |
| 2026-05-07 23:34 | 32.37646 | -123.44811 | 37174 ft | 475 kts | 75° |
| 2026-05-07 23:34 | 32.39186 | -123.37241 | 37177 ft | 474 kts | 76° |
| 2026-05-07 23:35 | 32.40718 | -123.29687 | 37179 ft | 474 kts | 75° |
| 2026-05-07 23:35 | 32.42252 | -123.22101 | 37172 ft | 474 kts | 75° |
| 2026-05-07 23:36 | 32.43773 | -123.14554 | 37177 ft | 474 kts | 75° |
| 2026-05-07 23:36 | 32.45298 | -123.06969 | 37167 ft | 474 kts | 76° |
| 2026-05-07 23:37 | 32.46878 | -122.99389 | 37168 ft | 474 kts | 73° |
| 2026-05-07 23:37 | 32.48643 | -122.91859 | 37160 ft | 474 kts | 73° |
| 2026-05-07 23:38 | 32.50376 | -122.84345 | 37166 ft | 474 kts | 73° |
| 2026-05-07 23:38 | 32.52108 | -122.76811 | 37162 ft | 474 kts | 73° |
| 2026-05-07 23:39 | 32.53838 | -122.69265 | 37155 ft | 474 kts | 73° |
| 2026-05-07 23:39 | 32.55561 | -122.61724 | 37158 ft | 474 kts | 73° |
| 2026-05-07 23:40 | 32.56989 | -122.55461 | 37152 ft | 475 kts | 73° |
| 2026-05-07 23:40 | 32.58706 | -122.47902 | 37150 ft | 474 kts | 74° |
| 2026-05-07 23:41 | 32.60414 | -122.40359 | 37153 ft | 474 kts | 74° |
| 2026-05-07 23:41 | 32.62124 | -122.32792 | 37154 ft | 474 kts | 73° |
| 2026-05-07 23:42 | 32.63821 | -122.25254 | 37146 ft | 474 kts | 73° |
| 2026-05-07 23:42 | 32.65520 | -122.17687 | 37139 ft | 474 kts | 74° |
| 2026-05-07 23:43 | 32.67205 | -122.10165 | 37139 ft | 474 kts | 74° |
| 2026-05-07 23:43 | 32.69586 | -122.02901 | 37142 ft | 467 kts | 55° |
| 2026-05-07 23:44 | 32.72967 | -121.96292 | 37120 ft | 469 kts | 57° |
| 2026-05-07 23:44 | 32.76364 | -121.89723 | 37134 ft | 470 kts | 56° |
| 2026-05-07 23:45 | 32.79797 | -121.83125 | 37130 ft | 470 kts | 56° |
| 2026-05-07 23:45 | 32.83230 | -121.76517 | 37135 ft | 469 kts | 56° |
| 2026-05-07 23:46 | 32.86642 | -121.69937 | 37129 ft | 468 kts | 56° |
| 2026-05-07 23:46 | 32.90056 | -121.63341 | 37129 ft | 468 kts | 56° |
| 2026-05-07 23:47 | 32.93468 | -121.56738 | 37126 ft | 468 kts | 56° |
| 2026-05-07 23:47 | 32.96875 | -121.50134 | 37121 ft | 468 kts | 56° |
| 2026-05-07 23:48 | 33.00253 | -121.43571 | 37118 ft | 466 kts | 56° |
| 2026-05-07 23:48 | 33.03638 | -121.36988 | 37116 ft | 466 kts | 56° |
| 2026-05-07 23:49 | 33.07023 | -121.30387 | 37114 ft | 466 kts | 56° |
| 2026-05-07 23:49 | 33.10404 | -121.23787 | 37120 ft | 466 kts | 56° |
| 2026-05-07 23:50 | 33.13758 | -121.17224 | 37102 ft | 464 kts | 56° |
| 2026-05-07 23:50 | 33.17114 | -121.10649 | 37105 ft | 464 kts | 56° |
| 2026-05-07 23:51 | 33.20467 | -121.04065 | 37100 ft | 464 kts | 56° |
| 2026-05-07 23:51 | 33.23785 | -120.97541 | 37100 ft | 464 kts | 56° |
| 2026-05-07 23:52 | 33.27131 | -120.90947 | 37097 ft | 462 kts | 56° |
| 2026-05-07 23:52 | 33.30454 | -120.84387 | 37097 ft | 462 kts | 56° |
| 2026-05-07 23:53 | 33.33776 | -120.77820 | 37094 ft | 462 kts | 56° |
| 2026-05-07 23:53 | 33.37091 | -120.71253 | 37089 ft | 462 kts | 56° |
| 2026-05-07 23:54 | 33.40406 | -120.64674 | 37086 ft | 462 kts | 56° |
| 2026-05-07 23:54 | 33.43722 | -120.58080 | 37087 ft | 462 kts | 56° |
| 2026-05-07 23:55 | 33.47036 | -120.51481 | 36803 ft | 462 kts | 56° |
| 2026-05-07 23:55 | 33.48686 | -120.48189 | 36536 ft | 461 kts | 56° |
| 2026-05-07 23:55 | 33.50314 | -120.44938 | 36208 ft | 452 kts | 56° |
| 2026-05-07 23:56 | 33.51923 | -120.41725 | 35630 ft | 450 kts | 56° |
| 2026-05-07 23:56 | 33.53538 | -120.38496 | 34835 ft | 453 kts | 56° |
| 2026-05-07 23:56 | 33.55162 | -120.35245 | 34008 ft | 457 kts | 56° |
| 2026-05-07 23:56 | 33.56803 | -120.31956 | 33136 ft | 459 kts | 56° |
| 2026-05-07 23:57 | 33.58442 | -120.28670 | 32370 ft | 459 kts | 56° |
| 2026-05-07 23:57 | 33.60074 | -120.25394 | 31618 ft | 458 kts | 56° |
| 2026-05-07 23:57 | 33.61710 | -120.22109 | 30814 ft | 459 kts | 57° |
| 2026-05-07 23:57 | 33.63340 | -120.18831 | 29933 ft | 461 kts | 57° |
| 2026-05-07 23:58 | 33.64987 | -120.15517 | 28926 ft | 463 kts | 57° |
| 2026-05-07 23:58 | 33.66639 | -120.12189 | 28009 ft | 464 kts | 57° |
| 2026-05-07 23:58 | 33.68291 | -120.08859 | 27081 ft | 465 kts | 58° |
| 2026-05-07 23:58 | 33.69915 | -120.05581 | 26384 ft | 461 kts | 58° |
| 2026-05-07 23:59 | 33.71544 | -120.02289 | 25683 ft | 456 kts | 58° |
| 2026-05-07 23:59 | 33.73159 | -119.99023 | 24981 ft | 457 kts | 58° |
| 2026-05-07 23:59 | 33.74786 | -119.95731 | 24270 ft | 458 kts | 59° |
| 2026-05-07 23:59 | 33.76399 | -119.92464 | 23556 ft | 455 kts | 59° |
| 2026-05-08 00:00 | 33.78007 | -119.89203 | 22750 ft | 452 kts | 59° |
| 2026-05-08 00:00 | 33.79620 | -119.85930 | 22038 ft | 447 kts | 59° |
| 2026-05-08 00:00 | 33.81198 | -119.82729 | 21412 ft | 442 kts | 59° |
| 2026-05-08 00:00 | 33.82742 | -119.79592 | 21128 ft | 429 kts | 59° |
| 2026-05-08 00:01 | 33.84241 | -119.76543 | 20855 ft | 417 kts | 59° |
| 2026-05-08 00:01 | 33.85675 | -119.73626 | 20643 ft | 405 kts | 59° |
| 2026-05-08 00:01 | 33.87090 | -119.70743 | 20419 ft | 394 kts | 59° |
| 2026-05-08 00:01 | 33.88455 | -119.67961 | 20208 ft | 380 kts | 59° |
| 2026-05-08 00:02 | 33.89766 | -119.65289 | 19935 ft | 363 kts | 59° |
| 2026-05-08 00:02 | 33.91041 | -119.62696 | 19358 ft | 357 kts | 59° |
| 2026-05-08 00:02 | 33.92292 | -119.60154 | 18846 ft | 349 kts | 59° |
| 2026-05-08 00:02 | 33.93520 | -119.57656 | 18350 ft | 343 kts | 59° |
| 2026-05-08 00:03 | 33.94722 | -119.55210 | 17794 ft | 337 kts | 59° |
| 2026-05-08 00:03 | 33.95903 | -119.52808 | 17291 ft | 331 kts | 59° |
| 2026-05-08 00:03 | 33.97094 | -119.50381 | 16745 ft | 343 kts | 59° |
| 2026-05-08 00:03 | 33.98319 | -119.47885 | 16242 ft | 348 kts | 59° |
| 2026-05-08 00:04 | 33.99553 | -119.45367 | 15740 ft | 351 kts | 59° |
| 2026-05-08 00:04 | 34.00782 | -119.42858 | 15199 ft | 348 kts | 59° |
| 2026-05-08 00:04 | 34.02006 | -119.40357 | 14667 ft | 344 kts | 59° |
| 2026-05-08 00:04 | 34.03217 | -119.37882 | 14137 ft | 341 kts | 59° |
| 2026-05-08 00:05 | 34.04417 | -119.35428 | 13578 ft | 340 kts | 59° |
| 2026-05-08 00:05 | 34.05619 | -119.32970 | 12974 ft | 338 kts | 59° |
| 2026-05-08 00:05 | 34.06808 | -119.30539 | 12637 ft | 333 kts | 59° |
| 2026-05-08 00:05 | 34.07982 | -119.28135 | 12606 ft | 334 kts | 59° |
| 2026-05-08 00:06 | 34.09142 | -119.25762 | 12395 ft | 332 kts | 59° |
| 2026-05-08 00:06 | 34.10309 | -119.23372 | 12162 ft | 331 kts | 58° |
| 2026-05-08 00:06 | 34.11478 | -119.20979 | 12007 ft | 331 kts | 58° |
| 2026-05-08 00:06 | 34.12656 | -119.18559 | 11838 ft | 331 kts | 58° |
| 2026-05-08 00:07 | 34.13816 | -119.16180 | 11665 ft | 330 kts | 58° |
| 2026-05-08 00:07 | 34.14957 | -119.13835 | 11531 ft | 325 kts | 58° |
| 2026-05-08 00:07 | 34.16082 | -119.11521 | 11433 ft | 313 kts | 58° |
| 2026-05-08 00:07 | 34.17167 | -119.09289 | 11252 ft | 302 kts | 58° |
| 2026-05-08 00:08 | 34.17895 | -119.06965 | 11027 ft | 296 kts | 81° |
| 2026-05-08 00:08 | 34.17758 | -119.04489 | 10914 ft | 300 kts | 105° |
| 2026-05-08 00:08 | 34.16940 | -119.02150 | 10839 ft | 304 kts | 112° |
| 2026-05-08 00:08 | 34.16059 | -118.99836 | 10750 ft | 304 kts | 113° |
| 2026-05-08 00:09 | 34.15172 | -118.97528 | 10681 ft | 304 kts | 113° |
| 2026-05-08 00:09 | 34.14273 | -118.95210 | 10610 ft | 304 kts | 113° |
| 2026-05-08 00:09 | 34.13369 | -118.92894 | 10530 ft | 307 kts | 113° |
| 2026-05-08 00:09 | 34.12454 | -118.90552 | 10451 ft | 308 kts | 114° |
| 2026-05-08 00:10 | 34.11545 | -118.88232 | 10308 ft | 303 kts | 114° |
| 2026-05-08 00:10 | 34.10648 | -118.85943 | 9979 ft | 304 kts | 114° |
| 2026-05-08 00:10 | 34.09844 | -118.83892 | 9739 ft | 301 kts | 114° |
| 2026-05-08 00:10 | 34.09044 | -118.81854 | 9476 ft | 298 kts | 114° |
| 2026-05-08 00:11 | 34.08158 | -118.79599 | 9132 ft | 297 kts | 114° |
| 2026-05-08 00:11 | 34.07280 | -118.77365 | 8978 ft | 294 kts | 114° |
| 2026-05-08 00:11 | 34.06401 | -118.75122 | 8975 ft | 296 kts | 114° |
| 2026-05-08 00:11 | 34.05521 | -118.72878 | 8952 ft | 295 kts | 114° |
| 2026-05-08 00:12 | 34.04640 | -118.70635 | 8585 ft | 296 kts | 114° |
| 2026-05-08 00:12 | 34.03764 | -118.68403 | 8297 ft | 294 kts | 114° |
| 2026-05-08 00:12 | 34.02972 | -118.66124 | 7890 ft | 295 kts | 102° |
| 2026-05-08 00:12 | 34.02711 | -118.63680 | 7520 ft | 295 kts | 95° |
| 2026-05-08 00:13 | 34.02482 | -118.61224 | 7183 ft | 295 kts | 96° |
| 2026-05-08 00:13 | 34.02250 | -118.58776 | 6866 ft | 294 kts | 96° |
| 2026-05-08 00:13 | 34.02018 | -118.56327 | 6551 ft | 294 kts | 96° |
| 2026-05-08 00:13 | 34.01788 | -118.53877 | 6226 ft | 293 kts | 96° |
| 2026-05-08 00:14 | 34.01558 | -118.51430 | 5889 ft | 294 kts | 96° |
| 2026-05-08 00:14 | 34.01328 | -118.48992 | 5610 ft | 292 kts | 96° |
| 2026-05-08 00:14 | 34.01104 | -118.46607 | 5432 ft | 280 kts | 95° |
| 2026-05-08 00:14 | 34.01215 | -118.44325 | 5162 ft | 267 kts | 75° |
| 2026-05-08 00:15 | 34.01609 | -118.42185 | 4944 ft | 256 kts | 76° |
| 2026-05-08 00:15 | 34.01973 | -118.40114 | 4775 ft | 249 kts | 77° |
| 2026-05-08 00:15 | 34.02327 | -118.38084 | 4532 ft | 247 kts | 77° |
| 2026-05-08 00:15 | 34.02668 | -118.36098 | 4333 ft | 243 kts | 79° |
| 2026-05-08 00:16 | 34.02896 | -118.34063 | 4117 ft | 240 kts | 82° |
| 2026-05-08 00:16 | 34.03097 | -118.32106 | 3962 ft | 238 kts | 82° |
| 2026-05-08 00:16 | 34.03306 | -118.30118 | 3980 ft | 240 kts | 83° |
| 2026-05-08 00:16 | 34.03523 | -118.28131 | 3995 ft | 239 kts | 82° |
| 2026-05-08 00:17 | 34.03740 | -118.26146 | 3990 ft | 240 kts | 82° |
| 2026-05-08 00:17 | 34.03960 | -118.24137 | 3988 ft | 241 kts | 82° |
| 2026-05-08 00:17 | 34.04179 | -118.22139 | 3991 ft | 239 kts | 82° |
| 2026-05-08 00:17 | 34.04396 | -118.20153 | 3972 ft | 241 kts | 81° |
| 2026-05-08 00:18 | 34.04617 | -118.18134 | 3991 ft | 243 kts | 81° |
| 2026-05-08 00:18 | 34.04591 | -118.16114 | 3841 ft | 242 kts | 106° |
| 2026-05-08 00:18 | 34.03816 | -118.14341 | 3607 ft | 238 kts | 129° |
| 2026-05-08 00:18 | 34.02682 | -118.12906 | 3288 ft | 236 kts | 150° |
| 2026-05-08 00:19 | 34.01202 | -118.12205 | 3047 ft | 227 kts | 170° |
| 2026-05-08 00:19 | 33.99648 | -118.11793 | 2718 ft | 228 kts | 174° |
| 2026-05-08 00:19 | 33.98116 | -118.11866 | 2581 ft | 219 kts | 201° |
| 2026-05-08 00:19 | 33.96864 | -118.12833 | 2559 ft | 214 kts | 232° |
| 2026-05-08 00:20 | 33.96204 | -118.14419 | 2578 ft | 214 kts | 258° |
| 2026-05-08 00:20 | 33.95976 | -118.16192 | 2594 ft | 214 kts | 264° |
| 2026-05-08 00:20 | 33.95800 | -118.17960 | 2589 ft | 212 kts | 264° |
| 2026-05-08 00:20 | 33.95622 | -118.19728 | 2598 ft | 213 kts | 264° |
| 2026-05-08 00:21 | 33.95444 | -118.21478 | 2621 ft | 205 kts | 264° |
| 2026-05-08 00:21 | 33.95276 | -118.23142 | 2488 ft | 197 kts | 264° |
| 2026-05-08 00:21 | 33.95112 | -118.24757 | 2277 ft | 190 kts | 263° |
| 2026-05-08 00:21 | 33.94957 | -118.26275 | 2052 ft | 177 kts | 262° |
| 2026-05-08 00:22 | 33.94812 | -118.27703 | 1830 ft | 168 kts | 262° |
| 2026-05-08 00:22 | 33.94720 | -118.28616 | 1697 ft | 162 kts | 261° |
| 2026-05-08 00:22 | 33.94590 | -118.29907 | 1523 ft | 150 kts | 261° |
| 2026-05-08 00:22 | 33.94462 | -118.31141 | 1291 ft | 148 kts | 261° |
| 2026-05-08 00:23 | 33.94336 | -118.32340 | 1093 ft | 138 kts | 260° |
| 2026-05-08 00:23 | 33.94217 | -118.33437 | 939 ft | 123 kts | 263° |
| 2026-05-08 00:23 | 33.94083 | -118.34920 | 701 ft | 138 kts | 262° |
| 2026-05-08 00:23 | 33.93963 | -118.36047 | 563 ft | 136 kts | 261° |
| 2026-05-08 00:24 | 33.93881 | -118.36833 | 436 ft | 143 kts | 262° |
| 2026-05-08 00:24 | 33.93766 | -118.38010 | 220 ft | 138 kts | 260° |
| 2026-05-08 00:24 | 33.93650 | -118.39123 | 124 ft | 125 kts | 261° |
| 2026-05-08 00:24 | 33.93561 | -118.39985 | 128 ft | 78 kts | 263° |
| 2026-05-08 00:25 | 33.93542 | -118.40451 | 126 ft | 44 kts | 279° |
| 2026-05-08 00:25 | 33.93593 | -118.40639 | 127 ft | 17 kts | 281° |
| 2026-05-08 00:25 | 33.93592 | -118.40784 | 126 ft | 16 kts | 264° |
| 2026-05-08 00:25 | 33.93602 | -118.40840 | 128 ft | 0 kts | 300° |
| 2026-05-08 00:26 | 33.93626 | -118.40884 | 128 ft | 13 kts | 315° |
| 2026-05-08 00:26 | 33.93756 | -118.40910 | 127 ft | 22 kts | 354° |
| 2026-05-08 00:27 | 33.93865 | -118.40902 | 127 ft | 13 kts | 48° |
| 2026-05-08 00:27 | 33.93882 | -118.40788 | 125 ft | 17 kts | 83° |
| 2026-05-08 00:27 | 33.93900 | -118.40597 | 127 ft | 28 kts | 84° |
| 2026-05-08 00:27 | 33.93919 | -118.40418 | 128 ft | 22 kts | 82° |
| 2026-05-08 00:28 | 33.93933 | -118.40291 | 128 ft | 9 kts | 84° |
| 2026-05-08 00:28 | 33.93939 | -118.40224 | 128 ft | 13 kts | 83° |
| 2026-05-08 00:28 | 33.93953 | -118.40092 | 127 ft | 24 kts | 83° |
| 2026-05-08 00:28 | 33.93976 | -118.39842 | 128 ft | 32 kts | 82° |
| 2026-05-08 00:29 | 33.94002 | -118.39798 | 126 ft | 9 kts | 358° |
| 2026-05-08 00:29 | 33.94078 | -118.39823 | 127 ft | 10 kts | 21° |
| 2026-05-08 00:29 | 33.94094 | -118.39777 | 128 ft | 4 kts | 81° |
| 2026-05-08 00:29 | 33.94095 | -118.39768 | 128 ft | 0 kts | 80° |